Terminal Aerodrome Forecast
Issued by NWS

Home | Current Version | Previous Version | Graphics & Text | Print | Product List | Glossary On
Versions: 1 2 3 4 5 6 7 8 9 10 11 12 13 14 15 16 17 18 19
767
FTUS43 KICT 161120
TAFRSL
TAF
KRSL 161120Z 1612/1712 16010KT P6SM SKC
     FM161600 17018G26KT P6SM SKC
     FM170100 16016KT P6SM SKC
     FM170600 17016KT 5SM BR SCT004 BKN008=

USA.gov is the U.S. government's official web portal to all federal, state and local government web resources and services.